createdAt,value
2019-04-26T11:43:02.789Z,17.53
2019-04-26T11:48:05.372Z,17.29
2019-04-26T11:53:10.148Z,17.49
2019-04-26T11:58:09.697Z,17.48
2019-04-26T12:03:10.855Z,17.40
2019-04-26T12:08:16.452Z,17.69
2019-04-26T12:13:17.365Z,17.35
2019-04-26T12:18:18.378Z,17.13
2019-04-26T12:23:21.483Z,17.37
2019-04-26T12:28:22.067Z,17.33
2019-04-26T12:33:22.952Z,17.17
2019-04-26T12:38:24.182Z,17.16
2019-04-26T12:43:26.717Z,17.39
2019-04-26T12:48:28.398Z,17.78
2019-04-26T12:53:31.318Z,18.48
2019-04-26T12:58:32.196Z,18.81
2019-04-26T13:03:33.163Z,18.76
2019-04-26T13:08:34.038Z,19.14
2019-04-26T13:13:39.749Z,19.49
2019-04-26T13:18:41.112Z,19.61
2019-04-26T13:23:43.711Z,20.20
2019-04-26T13:28:44.584Z,20.13
2019-04-26T13:33:45.481Z,20.46
2019-04-26T13:38:46.461Z,20.20
2019-04-26T13:43:47.333Z,20.12
2019-04-26T13:48:50.108Z,20.11
2019-04-26T13:53:51.080Z,19.62
2019-04-26T13:58:54.373Z,19.86
2019-04-26T14:03:54.775Z,19.47
2019-04-26T14:08:58.155Z,19.29
2019-04-26T14:13:59.951Z,19.04
2019-04-26T14:19:01.700Z,18.13
2019-04-26T14:24:07.651Z,17.89
2019-04-26T14:29:08.626Z,17.45
2019-04-26T14:34:11.930Z,17.08
2019-04-26T14:39:14.931Z,16.61
2019-04-26T14:44:16.161Z,16.57
2019-04-26T14:49:19.163Z,16.22
2019-04-26T14:54:20.344Z,15.53
2019-04-26T14:59:44.420Z,15.78
2019-04-26T15:04:47.688Z,15.19
2019-04-26T15:09:48.551Z,15.01
2019-04-26T15:14:53.234Z,15.02
2019-04-26T15:19:53.571Z,14.50
2019-04-26T15:24:54.883Z,14.25
2019-04-26T15:29:57.280Z,14.13
2019-04-26T15:34:58.907Z,13.64
2019-04-26T15:40:03.146Z,13.51
2019-04-26T15:45:07.237Z,13.76
2019-04-26T15:50:11.011Z,13.52
2019-04-26T15:55:13.331Z,12.97
2019-04-26T16:00:14.692Z,12.98
2019-04-26T16:05:16.731Z,12.58
2019-04-26T16:10:17.812Z,12.25
2019-04-26T16:15:18.680Z,12.62
2019-04-26T16:20:19.576Z,12.22
2019-04-26T16:25:20.437Z,11.82
2019-04-26T16:30:42.838Z,11.63
2019-04-26T16:35:45.216Z,11.25
2019-04-26T16:40:50.437Z,11.48
2019-04-26T16:45:48.872Z,11.44
2019-04-26T16:50:49.864Z,11.24
2019-04-26T16:55:53.274Z,11.31
2019-04-26T17:00:57.919Z,11.15
2019-04-26T17:06:06.727Z,11.13
2019-04-26T17:11:04.429Z,11.18
2019-04-26T17:16:05.764Z,11.18
2019-04-26T17:21:06.851Z,11.03
2019-04-26T17:26:13.757Z,10.70
2019-04-26T17:31:15.731Z,10.70
2019-04-26T17:36:17.302Z,10.94
2019-04-26T17:41:20.063Z,10.64
2019-04-26T17:46:22.302Z,10.40
2019-04-26T17:51:24.140Z,10.40
2019-04-26T17:56:26.064Z,10.21
2019-04-26T18:01:42.862Z,10.12
2019-04-26T18:06:32.453Z,10.01
2019-04-26T18:11:33.670Z,10.21
2019-04-26T18:16:38.006Z,9.98
2019-04-26T18:21:43.765Z,9.81
2019-04-26T18:26:47.055Z,9.89
2019-04-26T18:31:49.798Z,9.78
2019-04-26T18:36:50.713Z,9.70
2019-04-26T18:41:51.581Z,9.63
2019-04-26T18:46:57.345Z,9.33
2019-04-26T18:51:58.242Z,9.64
2019-04-26T18:57:00.608Z,9.22
2019-04-26T19:02:01.796Z,9.17
2019-04-26T19:07:02.763Z,9.49
2019-04-26T19:12:04.296Z,9.60
2019-04-26T19:17:26.054Z,9.66
2019-04-26T19:22:26.787Z,9.31
2019-04-26T19:27:27.776Z,9.12
2019-04-26T19:32:28.636Z,9.57
2019-04-26T19:37:30.383Z,9.25
2019-04-26T19:42:32.543Z,9.47
2019-04-26T19:47:43.899Z,9.16
2019-04-26T19:52:46.142Z,9.44
2019-04-26T19:58:09.651Z,9.24
2019-04-26T20:03:13.387Z,9.21
2019-04-26T20:08:13.040Z,9.12
2019-04-26T20:13:16.222Z,9.08
2019-04-26T20:18:17.661Z,9.02
2019-04-26T20:23:19.641Z,9.37
2019-04-26T20:28:22.661Z,9.07
2019-04-26T20:33:26.618Z,9.30
2019-04-26T20:38:26.778Z,9.10
2019-04-26T20:43:27.675Z,9.31
2019-04-26T20:48:30.105Z,9.55
2019-04-26T20:53:40.008Z,9.34
2019-04-26T20:58:37.614Z,9.14
2019-04-26T21:03:44.609Z,9.51
2019-04-26T21:08:42.423Z,9.47
2019-04-26T21:13:43.635Z,9.48
2019-04-26T21:18:44.641Z,9.60
2019-04-26T21:23:47.583Z,9.83
2019-04-26T21:28:54.220Z,9.65
2019-04-26T21:34:07.867Z,9.84
2019-04-26T21:39:17.061Z,9.77
2019-04-26T21:44:18.468Z,9.72
2019-04-26T21:49:20.898Z,9.63
2019-04-26T22:04:54.818Z,9.74
2019-04-26T22:10:14.398Z,9.53
2019-04-26T22:15:20.434Z,9.93
2019-04-26T22:20:23.418Z,9.92
2019-04-26T22:25:26.319Z,9.83
2019-04-26T22:30:29.701Z,9.91
2019-04-26T22:35:31.256Z,9.90
2019-04-26T22:40:33.520Z,9.80
2019-04-26T22:45:54.370Z,9.56
2019-04-26T22:50:58.377Z,9.66
2019-04-26T22:56:01.376Z,9.80
